createdAt,value
2019-03-20T00:00:09.841Z,5.87
2019-03-20T00:02:38.823Z,5.10
2019-03-20T00:05:08.119Z,5.15
2019-03-20T00:07:36.960Z,5.40
2019-03-20T00:10:06.434Z,5.47
2019-03-20T00:12:35.284Z,4.95
2019-03-20T00:15:04.873Z,5.72
2019-03-20T00:17:33.881Z,5.55
2019-03-20T00:20:02.801Z,6.12
2019-03-20T00:22:31.728Z,5.40
2019-03-20T00:25:00.574Z,5.00
2019-03-20T00:27:30.470Z,4.30
2019-03-20T00:29:59.418Z,5.10
2019-03-20T00:32:28.218Z,4.97
2019-03-20T00:35:01.078Z,5.33
2019-03-20T00:37:27.704Z,4.70
2019-03-20T00:39:56.563Z,4.60
2019-03-20T00:42:25.554Z,5.25
2019-03-20T00:44:54.498Z,4.62
2019-03-20T00:47:23.414Z,5.17
2019-03-20T00:49:52.318Z,5.72
2019-03-20T00:52:21.188Z,4.90
2019-03-20T00:54:50.104Z,4.95
2019-03-20T00:57:19.090Z,5.80
2019-03-20T00:59:48.076Z,6.37
2019-03-20T01:02:17.098Z,5.72
2019-03-20T01:04:48.071Z,6.00
2019-03-20T01:07:16.988Z,5.15
2019-03-20T01:09:46.022Z,5.25
2019-03-20T01:12:14.875Z,5.55
2019-03-20T01:14:43.874Z,5.95
2019-03-20T01:17:12.871Z,6.12
2019-03-20T01:19:41.960Z,5.42
2019-03-20T01:22:10.878Z,5.50
2019-03-20T01:24:39.825Z,5.78
2019-03-20T01:27:08.727Z,6.28
2019-03-20T01:29:37.647Z,6.10
2019-03-20T01:32:06.549Z,5.75
2019-03-20T01:34:35.570Z,4.87
2019-03-20T01:37:04.555Z,5.80
2019-03-20T01:39:33.501Z,6.20
2019-03-20T01:42:02.408Z,5.65
2019-03-20T01:44:31.326Z,6.17
2019-03-20T01:47:00.179Z,5.72
2019-03-20T01:49:29.066Z,5.30
2019-03-20T01:51:58.045Z,6.45
2019-03-20T01:54:26.970Z,6.17
2019-03-20T01:56:55.882Z,5.92
2019-03-20T01:59:24.770Z,6.55
2019-03-20T02:01:53.687Z,6.30
2019-03-20T02:04:22.513Z,6.15
2019-03-20T02:06:51.424Z,6.25
2019-03-20T02:09:20.350Z,6.58
2019-03-20T02:11:49.210Z,5.30
2019-03-20T02:14:18.138Z,5.40
2019-03-20T02:16:46.999Z,5.50
2019-03-20T02:19:15.897Z,6.05
2019-03-20T02:21:44.838Z,5.53
2019-03-20T02:24:13.730Z,5.80
2019-03-20T02:26:43.623Z,6.05
2019-03-20T02:29:12.530Z,5.90
2019-03-20T02:31:41.431Z,6.30
2019-03-20T02:34:10.294Z,6.08
2019-03-20T02:36:39.203Z,6.12
2019-03-20T02:39:08.496Z,6.53
2019-03-20T02:41:37.410Z,6.90
2019-03-20T02:44:06.333Z,5.83
2019-03-20T02:46:35.234Z,5.97
2019-03-20T02:49:04.259Z,5.58
2019-03-20T02:51:33.103Z,5.78
2019-03-20T02:54:01.976Z,5.42
2019-03-20T02:56:30.803Z,5.95
2019-03-20T02:58:59.654Z,4.85
2019-03-20T03:01:28.495Z,5.33
2019-03-20T03:03:57.390Z,5.65
2019-03-20T03:06:26.302Z,4.97
2019-03-20T03:08:55.137Z,5.72
2019-03-20T03:11:24.055Z,6.17
2019-03-20T03:13:52.889Z,5.80
2019-03-20T03:16:21.846Z,5.28
2019-03-20T03:18:50.694Z,5.92
2019-03-20T03:21:19.550Z,5.72
2019-03-20T03:23:48.467Z,5.05
2019-03-20T03:26:17.307Z,6.75
2019-03-20T03:28:46.154Z,5.30
2019-03-20T03:31:15.008Z,6.75
2019-03-20T03:33:44.000Z,6.00
2019-03-20T03:36:21.049Z,5.87
2019-03-20T03:38:43.540Z,6.53
2019-03-20T03:41:12.456Z,6.03
2019-03-20T03:43:41.388Z,5.92
2019-03-20T03:46:10.321Z,6.25
2019-03-20T03:48:39.151Z,6.20
2019-03-20T03:51:08.054Z,5.78
2019-03-20T03:53:37.023Z,6.85
2019-03-20T03:56:05.999Z,6.12
2019-03-20T03:58:34.856Z,6.25
2019-03-20T04:01:03.818Z,5.40
2019-03-20T04:03:32.880Z,5.30
2019-03-20T04:06:01.697Z,7.42
2019-03-20T04:08:30.695Z,5.20
2019-03-20T04:10:59.622Z,5.60
2019-03-20T04:13:28.556Z,5.65
2019-03-20T04:15:57.512Z,6.17
2019-03-20T04:18:26.421Z,6.15
2019-03-20T04:20:55.337Z,6.40
2019-03-20T04:23:24.292Z,6.78
2019-03-20T04:25:53.159Z,6.40
2019-03-20T04:28:22.137Z,6.40
2019-03-20T04:30:51.156Z,7.80
2019-03-20T04:33:20.117Z,6.95
2019-03-20T04:35:49.100Z,7.00
2019-03-20T04:38:17.951Z,6.50
2019-03-20T04:40:47.946Z,6.20
2019-03-20T04:43:16.877Z,6.15
2019-03-20T04:45:46.063Z,6.60
2019-03-20T04:48:14.985Z,7.50
2019-03-20T04:50:43.926Z,7.62
2019-03-20T04:53:12.781Z,8.98
2019-03-20T04:55:41.723Z,12.55
2019-03-20T04:58:10.911Z,8.60
2019-03-20T05:00:40.139Z,7.55
2019-03-20T05:03:09.322Z,6.50
2019-03-20T05:05:38.242Z,6.92
2019-03-20T05:08:07.243Z,7.03
2019-03-20T05:10:36.507Z,6.17
2019-03-20T05:13:05.512Z,6.83
2019-03-20T05:15:34.524Z,8.08
2019-03-20T05:18:03.521Z,6.30
2019-03-20T05:20:32.701Z,6.65
2019-03-20T05:23:01.843Z,7.05
2019-03-20T05:25:31.069Z,6.08
2019-03-20T05:28:00.625Z,6.72
2019-03-20T05:30:29.558Z,5.72
2019-03-20T05:32:58.478Z,5.90
2019-03-20T05:35:27.382Z,6.35
2019-03-20T05:37:56.317Z,6.55
2019-03-20T05:40:25.156Z,5.83
2019-03-20T05:42:54.423Z,6.30
2019-03-20T05:45:23.439Z,7.67
2019-03-20T05:47:52.273Z,6.50
2019-03-20T05:50:21.569Z,6.22
2019-03-20T05:52:50.494Z,6.28
2019-03-20T05:55:19.486Z,6.20
2019-03-20T05:57:48.514Z,6.85
2019-03-20T06:00:18.007Z,6.90
2019-03-20T06:02:46.973Z,6.60
2019-03-20T06:05:15.990Z,6.40
2019-03-20T06:07:44.902Z,9.58
2019-03-20T06:10:14.301Z,7.33
2019-03-20T06:12:43.578Z,6.85
2019-03-20T06:15:12.683Z,6.25
2019-03-20T06:17:41.581Z,6.62
2019-03-20T06:20:10.647Z,6.35
2019-03-20T06:22:39.775Z,6.87
2019-03-20T06:25:09.283Z,7.80
2019-03-20T06:27:38.564Z,6.00
2019-03-20T06:30:09.592Z,5.95
2019-03-20T06:32:38.694Z,6.00
2019-03-20T06:35:13.109Z,5.87
2019-03-20T06:37:43.102Z,5.70
2019-03-20T06:40:12.251Z,6.15
2019-03-20T06:42:41.282Z,5.62
2019-03-20T06:45:16.266Z,6.00
2019-03-20T06:47:51.196Z,5.55
2019-03-20T06:50:29.218Z,5.53
2019-03-20T06:53:04.329Z,5.75
2019-03-20T06:55:33.793Z,7.08
2019-03-20T06:58:06.928Z,8.33
2019-03-20T07:00:46.863Z,7.17
2019-03-20T07:03:40.253Z,8.68
2019-03-20T07:06:39.674Z,7.55
2019-03-20T07:09:32.642Z,7.05
2019-03-20T07:12:01.781Z,7.67
2019-03-20T07:14:49.961Z,8.63
2019-03-20T07:17:18.906Z,7.75
2019-03-20T07:19:50.164Z,7.37
2019-03-20T07:22:19.057Z,8.10
2019-03-20T07:24:48.052Z,7.87
2019-03-20T07:27:19.351Z,7.58
2019-03-20T07:29:54.636Z,10.88
2019-03-20T07:32:23.724Z,8.08
2019-03-20T07:34:52.620Z,8.73
2019-03-20T07:37:21.586Z,8.05
2019-03-20T07:39:50.506Z,8.50
2019-03-20T07:42:19.385Z,8.75
2019-03-20T07:44:48.225Z,9.05
2019-03-20T07:47:17.157Z,9.20
2019-03-20T07:49:46.119Z,8.85
2019-03-20T07:52:14.999Z,8.85
2019-03-20T07:54:43.858Z,7.65
2019-03-20T07:57:12.722Z,8.48
2019-03-20T07:59:43.589Z,8.13
2019-03-20T08:02:12.571Z,8.28
2019-03-20T08:04:41.601Z,8.30
2019-03-20T08:07:10.529Z,8.25
2019-03-20T08:09:39.601Z,9.25
2019-03-20T08:12:08.609Z,8.05
2019-03-20T08:14:37.529Z,8.98
2019-03-20T08:17:06.522Z,8.70
2019-03-20T08:19:35.514Z,7.95
2019-03-20T08:22:04.528Z,8.25
2019-03-20T08:24:33.365Z,7.10
2019-03-20T08:27:02.368Z,7.22
2019-03-20T08:29:31.383Z,7.33
2019-03-20T08:32:00.363Z,7.08
2019-03-20T08:34:29.238Z,5.65
2019-03-20T08:36:58.154Z,6.22
2019-03-20T08:39:27.043Z,5.15
2019-03-20T08:41:55.898Z,5.22
2019-03-20T08:44:28.001Z,4.85
2019-03-20T08:46:56.930Z,5.10
2019-03-20T08:49:25.954Z,4.90
2019-03-20T08:51:54.988Z,5.37
2019-03-20T08:54:23.845Z,6.10
2019-03-20T08:56:52.769Z,4.30
2019-03-20T08:59:21.787Z,4.83
2019-03-20T09:01:50.806Z,4.67
2019-03-20T09:04:21.899Z,4.40
2019-03-20T09:06:50.832Z,4.28
2019-03-20T09:09:20.707Z,4.55
2019-03-20T09:11:49.586Z,4.10
2019-03-20T09:14:18.526Z,4.10
2019-03-20T09:16:47.532Z,4.75
2019-03-20T09:19:16.458Z,5.10
2019-03-20T09:21:45.408Z,5.10
2019-03-20T09:24:14.369Z,4.30
2019-03-20T09:26:43.425Z,5.28
2019-03-20T09:29:18.524Z,4.92
2019-03-20T09:31:43.192Z,5.20
2019-03-20T09:34:12.132Z,4.90
2019-03-20T09:36:43.393Z,3.90
2019-03-20T09:39:11.816Z,4.50
2019-03-20T09:41:40.693Z,4.33
2019-03-20T09:44:11.785Z,4.75
2019-03-20T09:46:40.632Z,4.60
2019-03-20T09:49:09.562Z,5.78
2019-03-20T09:51:38.506Z,3.35
2019-03-20T09:54:07.424Z,3.42
2019-03-20T09:56:36.396Z,4.05
2019-03-20T09:59:05.510Z,3.70
2019-03-20T10:01:34.378Z,4.05
2019-03-20T10:04:03.259Z,4.95
2019-03-20T10:06:32.186Z,3.83
2019-03-20T10:09:02.029Z,3.72
2019-03-20T10:11:31.042Z,4.47
2019-03-20T10:13:59.912Z,4.75
2019-03-20T10:16:28.925Z,4.75
2019-03-20T10:18:57.807Z,5.08
2019-03-20T10:21:26.805Z,4.60
2019-03-20T10:23:56.062Z,4.90
2019-03-20T10:26:24.983Z,3.87
2019-03-20T10:28:53.943Z,4.08
2019-03-20T10:31:22.773Z,4.55
2019-03-20T10:33:51.801Z,3.92
2019-03-20T10:36:26.771Z,3.87
2019-03-20T10:39:06.053Z,4.15
2019-03-20T10:41:26.233Z,3.45
2019-03-20T10:43:55.161Z,3.70
2019-03-20T10:46:24.039Z,3.58
2019-03-20T10:48:52.964Z,3.50
2019-03-20T10:51:22.002Z,4.00
2019-03-20T10:53:50.879Z,4.00
2019-03-20T10:56:19.759Z,3.80
2019-03-20T10:58:48.711Z,3.50
2019-03-20T11:01:17.657Z,3.95
2019-03-20T11:03:46.652Z,3.35
2019-03-20T11:06:15.671Z,3.33
2019-03-20T11:08:44.526Z,2.98
2019-03-20T11:11:13.689Z,3.33
2019-03-20T11:13:42.711Z,3.35
2019-03-20T11:16:11.570Z,3.22
2019-03-20T11:18:40.594Z,2.77
2019-03-20T11:21:09.533Z,3.30
2019-03-20T11:23:38.465Z,3.12
2019-03-20T11:26:07.518Z,3.15
2019-03-20T11:28:36.487Z,3.27
2019-03-20T11:31:05.595Z,3.25
2019-03-20T11:33:34.557Z,3.40
2019-03-20T11:36:03.655Z,3.20
2019-03-20T11:38:32.582Z,3.08
2019-03-20T11:41:01.538Z,3.67
2019-03-20T11:43:35.587Z,4.58
2019-03-20T11:46:10.492Z,4.10
2019-03-20T11:48:45.260Z,3.60
2019-03-20T11:51:14.311Z,4.95
2019-03-20T11:53:49.037Z,3.40
2019-03-20T11:56:18.043Z,3.20
2019-03-20T11:58:48.045Z,3.60
2019-03-20T12:01:16.973Z,3.37
2019-03-20T12:03:46.871Z,4.58
2019-03-20T12:06:15.878Z,3.37
2019-03-20T12:08:44.850Z,4.00
2019-03-20T12:11:22.876Z,4.00
2019-03-20T12:14:00.661Z,4.28
2019-03-20T12:16:39.941Z,3.40
2019-03-20T12:19:09.052Z,3.60
2019-03-20T12:21:39.061Z,3.40
2019-03-20T12:24:09.124Z,3.92
2019-03-20T12:26:46.231Z,3.05
2019-03-20T12:36:56.602Z,3.47
2019-03-20T12:39:25.831Z,3.25
2019-03-20T12:41:54.810Z,3.65
2019-03-20T12:44:23.834Z,2.92
2019-03-20T12:46:52.862Z,4.05
2019-03-20T12:49:21.942Z,3.33
2019-03-20T12:51:51.104Z,3.37
2019-03-20T12:54:25.887Z,2.72
2019-03-20T12:56:56.044Z,3.40
2019-03-20T12:59:25.047Z,2.92
2019-03-20T13:01:54.079Z,3.02
2019-03-20T13:04:23.015Z,3.15
2019-03-20T13:06:52.021Z,3.20
2019-03-20T13:09:20.907Z,3.35
2019-03-20T13:11:49.886Z,2.95
2019-03-20T13:14:18.840Z,3.05
2019-03-20T13:16:47.773Z,3.52
2019-03-20T13:19:16.659Z,3.62
2019-03-20T13:21:48.702Z,3.27
2019-03-20T13:24:20.044Z,3.20
2019-03-20T13:26:49.114Z,3.95
2019-03-20T13:29:18.178Z,3.10
2019-03-20T13:31:47.259Z,2.85
2019-03-20T13:34:16.346Z,3.22
2019-03-20T13:36:45.473Z,3.77
2019-03-20T13:39:14.665Z,4.12
2019-03-20T13:41:43.733Z,3.50
2019-03-20T13:44:12.859Z,2.92
2019-03-20T13:46:42.106Z,2.80
2019-03-20T13:49:11.191Z,2.70
2019-03-20T13:51:43.513Z,3.55
2019-03-20T13:54:12.563Z,3.30
2019-03-20T13:56:41.611Z,3.05
2019-03-20T13:59:10.637Z,2.83
2019-03-20T14:01:39.841Z,3.58
2019-03-20T14:04:08.983Z,3.10
2019-03-20T14:06:37.976Z,3.15
2019-03-20T14:09:08.798Z,3.45
2019-03-20T14:11:37.721Z,2.87
2019-03-20T14:14:06.806Z,2.67
2019-03-20T14:16:35.891Z,2.90
2019-03-20T14:19:04.906Z,2.45
2019-03-20T14:21:33.935Z,3.60
2019-03-20T14:24:02.852Z,2.75
2019-03-20T14:26:31.842Z,3.40
2019-03-20T14:29:00.788Z,2.70
2019-03-20T14:31:31.818Z,3.33
2019-03-20T14:34:02.882Z,3.60
2019-03-20T14:36:31.861Z,3.37
2019-03-20T14:39:00.731Z,3.00
2019-03-20T14:41:29.779Z,3.12
2019-03-20T14:44:04.810Z,2.65
2019-03-20T14:46:33.782Z,2.98
2019-03-20T14:49:02.753Z,3.58
2019-03-20T14:51:31.718Z,2.70
2019-03-20T14:54:01.505Z,3.22
2019-03-20T14:56:31.516Z,3.20
2019-03-20T14:59:00.538Z,3.12
2019-03-20T15:01:29.580Z,3.08
2019-03-20T15:03:58.693Z,3.83
2019-03-20T15:06:27.646Z,3.15
2019-03-20T15:08:56.581Z,3.70
2019-03-20T15:11:25.608Z,3.10
2019-03-20T15:13:56.234Z,3.02
2019-03-20T15:16:25.186Z,3.22
2019-03-20T15:18:55.261Z,3.05
2019-03-20T15:21:24.298Z,2.67
2019-03-20T15:23:53.507Z,3.00
2019-03-20T15:26:22.440Z,3.40
2019-03-20T15:28:51.401Z,2.80
2019-03-20T15:31:21.356Z,2.60
2019-03-20T15:33:56.279Z,2.85
2019-03-20T15:36:27.563Z,3.30
2019-03-20T15:38:58.458Z,2.35
2019-03-20T15:41:27.423Z,2.87
2019-03-20T15:44:02.365Z,2.70
2019-03-20T15:46:28.186Z,3.52
2019-03-20T15:48:57.141Z,2.67
2019-03-20T15:51:26.117Z,3.10
2019-03-20T15:53:56.152Z,3.20
2019-03-20T15:56:25.199Z,3.20
2019-03-20T15:58:56.433Z,2.90
2019-03-20T16:01:25.501Z,3.27
2019-03-20T16:03:54.539Z,2.60
2019-03-20T16:06:23.499Z,2.70
2019-03-20T16:08:54.941Z,2.70
2019-03-20T16:11:23.270Z,2.85
2019-03-20T16:13:54.379Z,3.50
2019-03-20T16:16:33.726Z,3.40
2019-03-20T16:19:17.062Z,2.92
2019-03-20T16:21:46.027Z,3.17
2019-03-20T16:24:18.271Z,3.00
2019-03-20T16:26:50.472Z,2.92
2019-03-20T16:29:19.490Z,3.40
2019-03-20T16:31:48.532Z,2.90
2019-03-20T16:34:17.610Z,3.20
2019-03-20T16:36:50.882Z,3.02
2019-03-20T16:39:19.966Z,3.62
2019-03-20T16:41:54.831Z,3.10
2019-03-20T16:44:28.089Z,3.20
2019-03-20T16:47:03.697Z,3.20
2019-03-20T16:49:35.809Z,3.40
2019-03-20T16:52:05.014Z,2.90
2019-03-20T16:54:40.963Z,2.72
2019-03-20T16:57:12.209Z,2.80
2019-03-20T16:59:57.527Z,2.85
2019-03-20T17:02:17.404Z,3.17
2019-03-20T17:04:48.484Z,2.70
2019-03-20T17:07:17.526Z,3.35
2019-03-20T17:09:47.678Z,3.02
2019-03-20T17:12:17.721Z,3.08
2019-03-20T17:14:52.861Z,3.35
2019-03-20T17:17:30.129Z,3.00
2019-03-20T17:20:05.903Z,3.55
2019-03-20T17:22:41.907Z,3.60
2019-03-20T17:25:09.410Z,3.20
2019-03-20T17:27:38.446Z,3.67
2019-03-20T17:30:21.085Z,3.08
2019-03-20T17:32:50.075Z,3.17
2019-03-20T17:35:20.288Z,3.45
2019-03-20T17:37:50.403Z,2.98
2019-03-20T17:40:22.581Z,3.22
2019-03-20T17:42:57.719Z,3.00
2019-03-20T17:45:36.211Z,2.60
2019-03-20T17:48:05.416Z,3.10
2019-03-20T17:50:35.541Z,3.10
2019-03-20T17:53:05.769Z,3.15
2019-03-20T17:55:34.936Z,3.42
2019-03-20T17:58:04.468Z,3.10
2019-03-20T18:00:42.608Z,2.75
2019-03-20T18:03:12.709Z,3.42
2019-03-20T18:05:44.845Z,3.08
2019-03-20T18:08:13.879Z,3.02
2019-03-20T18:10:45.005Z,3.30
2019-03-20T18:13:19.135Z,4.50
2019-03-20T18:15:52.315Z,4.87
2019-03-20T18:18:26.357Z,5.22
2019-03-20T18:20:55.214Z,3.80
2019-03-20T18:23:25.254Z,4.20
2019-03-20T18:26:01.890Z,3.75
2019-03-20T18:28:30.809Z,3.08
2019-03-20T18:31:05.847Z,3.98
2019-03-20T18:33:36.949Z,4.05
2019-03-20T18:36:07.088Z,2.90
2019-03-20T18:38:36.195Z,3.47
2019-03-20T18:41:05.461Z,3.95
2019-03-20T18:43:34.385Z,3.58
2019-03-20T18:46:03.553Z,4.03
2019-03-20T18:48:32.662Z,3.65
2019-03-20T18:51:04.814Z,4.10
2019-03-20T18:53:33.903Z,4.30
2019-03-20T18:56:03.007Z,4.47
2019-03-20T18:58:32.028Z,4.25
2019-03-20T19:01:03.526Z,3.77
2019-03-20T19:03:40.908Z,5.83
2019-03-20T19:06:14.463Z,5.40
2019-03-20T19:08:43.664Z,5.15
2019-03-20T19:11:13.255Z,3.80
2019-03-20T19:13:42.286Z,4.22
2019-03-20T19:16:11.274Z,4.40
2019-03-20T19:18:40.293Z,3.83
2019-03-20T19:21:09.366Z,3.90
2019-03-20T19:23:38.422Z,4.90
2019-03-20T19:26:09.245Z,4.65
2019-03-20T19:28:38.298Z,4.40
2019-03-20T19:31:07.304Z,4.58
2019-03-20T19:33:36.343Z,4.85
2019-03-20T19:36:05.354Z,8.90
2019-03-20T19:38:35.261Z,6.60
2019-03-20T19:41:04.648Z,8.50
2019-03-20T19:43:35.524Z,6.72
2019-03-20T19:46:04.559Z,4.40
2019-03-20T19:48:33.576Z,4.17
2019-03-20T19:51:02.555Z,4.20
2019-03-20T19:53:31.678Z,4.75
2019-03-20T19:56:00.583Z,5.67
2019-03-20T19:58:29.571Z,4.40
2019-03-20T20:00:58.851Z,4.40
2019-03-20T20:03:27.734Z,5.53
2019-03-20T20:05:56.990Z,5.05
2019-03-20T20:08:26.045Z,4.40
2019-03-20T20:10:55.117Z,5.47
2019-03-20T20:13:24.138Z,4.47
2019-03-20T20:15:54.317Z,4.65
2019-03-20T20:18:23.337Z,5.45
2019-03-20T20:20:52.361Z,5.03
2019-03-20T20:23:21.328Z,5.45
2019-03-20T20:25:50.416Z,5.25
2019-03-20T20:28:20.423Z,4.20
2019-03-20T20:30:49.749Z,3.58
2019-03-20T20:33:18.736Z,3.50
2019-03-20T20:35:47.909Z,3.87
2019-03-20T20:38:16.942Z,4.00
2019-03-20T20:40:46.117Z,3.70
2019-03-20T20:43:15.245Z,4.10
2019-03-20T20:45:44.198Z,3.87
2019-03-20T20:48:13.176Z,3.60
2019-03-20T20:50:42.327Z,4.65
2019-03-20T20:53:14.829Z,3.75
2019-03-20T20:55:45.400Z,4.55
2019-03-20T20:58:16.833Z,4.60
2019-03-20T21:00:45.703Z,5.22
2019-03-20T21:03:14.809Z,4.35
2019-03-20T21:05:43.764Z,4.20
2019-03-20T21:08:12.796Z,5.03
2019-03-20T21:10:43.851Z,4.92
2019-03-20T21:13:13.087Z,4.20
2019-03-20T21:15:47.870Z,4.50
2019-03-20T21:18:52.902Z,4.20
2019-03-20T21:21:22.843Z,3.83
2019-03-20T21:24:25.262Z,4.30
2019-03-20T21:27:41.618Z,4.12
2019-03-20T21:30:37.847Z,3.95
2019-03-20T21:33:09.128Z,3.98
2019-03-20T21:36:11.621Z,4.83
2019-03-20T21:38:41.112Z,5.28
2019-03-20T21:42:02.065Z,4.00
2019-03-20T21:45:09.472Z,4.83
2019-03-20T21:47:37.390Z,4.70
2019-03-20T21:50:44.826Z,4.05
2019-03-20T21:53:17.498Z,4.40
2019-03-20T21:56:15.699Z,4.00
2019-03-20T21:58:59.221Z,4.65
2019-03-20T22:02:02.450Z,4.55
2019-03-20T22:04:34.058Z,6.10
2019-03-20T22:07:09.530Z,4.40
2019-03-20T22:10:23.025Z,3.80
2019-03-20T22:13:23.673Z,3.62
2019-03-20T22:16:22.616Z,4.45
2019-03-20T22:19:57.082Z,4.10
2019-03-20T22:23:01.674Z,3.83
2019-03-20T22:25:55.213Z,4.15
2019-03-20T22:28:53.002Z,4.20
2019-03-20T22:31:22.589Z,4.45
2019-03-20T22:34:34.497Z,4.47
2019-03-20T22:37:04.114Z,4.58
2019-03-20T22:40:21.138Z,3.95
2019-03-20T22:43:31.493Z,4.28
2019-03-20T22:46:37.625Z,4.30
2019-03-20T22:50:02.884Z,4.75
2019-03-20T22:53:13.521Z,4.58
2019-03-20T22:55:58.800Z,4.20
2019-03-20T22:58:47.173Z,4.37
2019-03-20T23:01:50.109Z,5.10
2019-03-20T23:04:29.782Z,5.40
2019-03-20T23:06:59.370Z,5.05
2019-03-20T23:09:28.980Z,4.67
2019-03-20T23:12:00.650Z,4.70
2019-03-20T23:14:30.251Z,4.60
2019-03-20T23:16:59.689Z,6.22
2019-03-20T23:19:38.036Z,4.70
2019-03-20T23:22:13.559Z,5.20
2019-03-20T23:24:43.502Z,5.83
2019-03-20T23:27:24.183Z,5.10
2019-03-20T23:29:54.686Z,5.22
2019-03-20T23:32:24.210Z,4.80
2019-03-20T23:34:53.737Z,4.65
2019-03-20T23:37:24.215Z,4.47
2019-03-20T23:39:53.794Z,4.90
2019-03-20T23:42:25.205Z,5.03
2019-03-20T23:44:54.901Z,4.28
2019-03-20T23:47:33.845Z,5.22
2019-03-20T23:50:03.426Z,4.83
2019-03-20T23:52:33.045Z,4.70
2019-03-20T23:55:02.594Z,5.08
2019-03-20T23:57:32.022Z,4.65
